Time;durP1;ratioP1;P1;durP2;ratioP2;P2;SDS_P1;SDS_P2;PMS_P1;PMS_P2;Temp;Humidity;BMP_temperature;BMP_pressure;BME280_temperature;BME280_humidity;BME280_pressure;Samples;Min_cycle;Max_cycle;Signal;HPM_P1;HPM_P2
2021/01/22 00:01:07;;;;;;;7.38;2.90;;;7.70;86.90;;;;;;5017587;28;20026;-49
2021/01/22 00:03:33;;;;;;;9.15;3.88;;;7.70;86.90;;;;;;5035940;28;20467;-49
2021/01/22 00:05:59;;;;;;;5.75;3.40;;;7.60;86.80;;;;;;5026677;28;20025;-50
2021/01/22 00:08:24;;;;;;;6.35;3.83;;;7.70;87.00;;;;;;5015920;28;20034;-50
2021/01/22 00:10:50;;;;;;;6.43;3.42;;;7.70;87.70;;;;;;5015819;28;20018;-50
2021/01/22 00:13:16;;;;;;;12.70;3.58;;;7.70;87.00;;;;;;5016879;28;20451;-50
2021/01/22 00:15:41;;;;;;;4.97;3.40;;;7.70;87.70;;;;;;5015682;28;20440;-50
2021/01/22 00:18:07;;;;;;;8.73;4.20;;;7.70;87.00;;;;;;5018557;28;20029;-50
2021/01/22 00:20:32;;;;;;;6.80;3.28;;;7.70;87.00;;;;;;5035565;28;20112;-50
2021/01/22 00:22:58;;;;;;;6.22;3.30;;;7.70;87.00;;;;;;5033367;28;20022;-50
2021/01/22 00:25:24;;;;;;;8.82;4.30;;;7.70;87.10;;;;;;5035425;28;20037;-50
2021/01/22 00:27:49;;;;;;;3.63;3.17;;;7.70;87.10;;;;;;5035150;28;20037;-50
2021/01/22 00:30:15;;;;;;;5.00;3.55;;;7.60;87.00;;;;;;5035124;28;20075;-50
2021/01/22 00:32:41;;;;;;;4.68;3.55;;;7.60;87.00;;;;;;5033742;28;20470;-50
2021/01/22 00:35:06;;;;;;;5.15;2.90;;;7.60;87.00;;;;;;5034952;28;20026;-50
2021/01/22 00:37:32;;;;;;;10.70;3.78;;;7.60;87.00;;;;;;5035324;28;20409;-50
2021/01/22 00:39:58;;;;;;;4.80;2.45;;;7.60;86.90;;;;;;5034855;28;20033;-49
2021/01/22 00:42:24;;;;;;;4.68;2.50;;;7.70;87.00;;;;;;5034847;28;20017;-50
2021/01/22 00:44:50;;;;;;;3.25;2.53;;;7.60;87.00;;;;;;5032843;28;20033;-49
2021/01/22 00:47:15;;;;;;;3.50;1.95;;;7.60;87.00;;;;;;5034858;28;20698;-50
2021/01/22 00:49:41;;;;;;;1.65;0.98;;;7.60;87.00;;;;;;5034821;28;20439;-50
2021/01/22 00:52:06;;;;;;;0.98;0.85;;;7.60;87.00;;;;;;5034739;28;20025;-50
2021/01/22 00:54:32;;;;;;;1.83;1.67;;;7.60;87.10;;;;;;5028254;28;20030;-49
2021/01/22 00:56:58;;;;;;;2.47;1.20;;;7.60;87.10;;;;;;5015146;28;20030;-50
2021/01/22 00:59:23;;;;;;;2.70;1.67;;;7.60;87.20;;;;;;5014727;28;20383;-50
2021/01/22 01:01:49;;;;;;;0.43;0.43;;;7.60;87.20;;;;;;5014841;28;20087;-49
2021/01/22 01:04:15;;;;;;;3.65;1.55;;;7.60;87.20;;;;;;5015128;28;20026;-50
2021/01/22 01:06:41;;;;;;;1.88;1.40;;;7.60;87.20;;;;;;5026853;28;20029;-50
2021/01/22 01:09:07;;;;;;;1.33;1.23;;;7.60;87.20;;;;;;5014779;28;20033;-50
2021/01/22 01:11:33;;;;;;;2.03;1.27;;;7.60;87.20;;;;;;5017363;28;20025;-50
2021/01/22 01:13:58;;;;;;;3.17;1.10;;;7.60;87.20;;;;;;5034209;28;20447;-50
2021/01/22 01:16:24;;;;;;;3.08;1.52;;;7.60;87.20;;;;;;5021115;28;20117;-50
2021/01/22 01:18:50;;;;;;;0.40;0.40;;;7.60;87.20;;;;;;5014696;28;20128;-50
2021/01/22 01:21:16;;;;;;;0.55;0.52;;;7.60;87.30;;;;;;5014606;28;20033;-50
2021/01/22 01:23:42;;;;;;;1.13;0.70;;;7.60;87.30;;;;;;5014587;28;20072;-50
2021/01/22 01:26:07;;;;;;;0.40;0.40;;;7.60;87.30;;;;;;5015539;28;20395;-50
2021/01/22 01:28:33;;;;;;;0.65;0.65;;;7.60;87.20;;;;;;5014391;28;20030;-50
2021/01/22 01:30:59;;;;;;;0.30;0.30;;;7.60;87.40;;;;;;5013981;28;20379;-50
2021/01/22 01:33:24;;;;;;;0.50;0.50;;;7.60;87.30;;;;;;5014645;28;20030;-50
2021/01/22 01:35:51;;;;;;;0.50;0.50;;;7.60;87.40;;;;;;5015669;28;20025;-50
2021/01/22 01:38:20;;;;;;;0.43;0.40;;;7.60;87.40;;;;;;5014210;28;20092;-49
2021/01/22 01:40:46;;;;;;;1.05;0.82;;;7.60;87.40;;;;;;5027796;28;20294;-49
2021/01/22 01:43:13;;;;;;;0.90;0.77;;;7.60;87.30;;;;;;5033728;28;20509;-50
2021/01/22 01:45:40;;;;;;;0.30;0.30;;;7.60;87.40;;;;;;5033841;28;20422;-50
2021/01/22 01:48:10;;;;;;;0.90;0.50;;;7.60;87.40;;;;;;5019886;28;20107;-49
2021/01/22 01:50:36;;;;;;;0.40;0.40;;;7.60;87.40;;;;;;5014092;28;20037;-50
2021/01/22 01:53:03;;;;;;;0.75;0.47;;;7.70;87.40;;;;;;5013573;28;20037;-50
2021/01/22 01:55:30;;;;;;;0.35;0.35;;;7.70;87.40;;;;;;5013860;28;20152;-50
2021/01/22 01:57:56;;;;;;;0.32;0.32;;;7.70;87.50;;;;;;5015282;28;20041;-50
2021/01/22 02:00:22;;;;;;;0.57;0.57;;;7.70;87.50;;;;;;5031252;28;20037;-50
2021/01/22 02:02:48;;;;;;;0.50;0.50;;;7.70;87.50;;;;;;5046144;28;20036;-50
2021/01/22 02:05:14;;;;;;;0.35;0.35;;;7.70;87.40;;;;;;5050884;28;20029;-49
2021/01/22 02:07:40;;;;;;;2.88;0.95;;;7.70;87.40;;;;;;5028145;28;20402;-50
2021/01/22 02:10:06;;;;;;;0.65;0.65;;;7.70;87.50;;;;;;5013632;28;20112;-49
2021/01/22 02:12:33;;;;;;;0.50;0.50;;;7.70;87.50;;;;;;5013491;28;20029;-50
2021/01/22 02:15:00;;;;;;;1.60;0.57;;;7.70;87.50;;;;;;5014911;28;20355;-50
2021/01/22 02:17:26;;;;;;;0.60;0.60;;;7.70;87.50;;;;;;5013677;28;20030;-50
2021/01/22 02:20:10;;;;;;;0.95;0.60;;;7.70;87.50;;;;;;5014776;28;20041;-50
2021/01/22 02:22:38;;;;;;;0.40;0.40;;;7.70;87.40;;;;;;5013329;28;20026;-50
2021/01/22 02:25:07;;;;;;;0.22;0.22;;;7.70;87.50;;;;;;5013434;28;20434;-50
2021/01/22 02:27:35;;;;;;;0.55;0.55;;;7.70;87.50;;;;;;5013816;28;20022;-50
2021/01/22 02:30:05;;;;;;;0.30;0.30;;;7.70;87.50;;;;;;5014592;28;20029;-49
2021/01/22 02:32:32;;;;;;;0.60;0.60;;;7.70;87.50;;;;;;5013330;28;20325;-50
2021/01/22 02:35:01;;;;;;;0.50;0.50;;;7.70;87.50;;;;;;5014159;28;20076;-50
2021/01/22 02:37:27;;;;;;;0.30;0.30;;;7.70;87.40;;;;;;5033053;28;20374;-50
2021/01/22 02:39:55;;;;;;;2.95;1.05;;;7.70;87.50;;;;;;5031264;28;20033;-50
2021/01/22 02:42:22;;;;;;;0.80;0.80;;;7.70;87.40;;;;;;5023682;28;20032;-49
2021/01/22 02:44:48;;;;;;;0.30;0.30;;;7.70;87.40;;;;;;5013098;28;20033;-49
2021/01/22 02:47:15;;;;;;;0.40;0.40;;;7.70;87.40;;;;;;5013512;28;20053;-49
2021/01/22 02:49:41;;;;;;;0.80;0.60;;;7.70;87.50;;;;;;5014131;28;20598;-50
2021/01/22 02:52:07;;;;;;;0.30;0.30;;;7.70;87.50;;;;;;5013086;28;20033;-49
2021/01/22 02:54:33;;;;;;;0.40;0.40;;;7.70;87.40;;;;;;5013531;28;20030;-50
2021/01/22 02:57:40;;;;;;;0.55;0.40;;;7.70;87.50;;;;;;5013512;28;20528;-50
2021/01/22 03:00:15;;;;;;;0.40;0.40;;;7.70;87.50;;;;;;5018133;28;20040;-49
2021/01/22 03:02:55;;;;;;;0.25;0.25;;;7.70;87.40;;;;;;5034502;28;20029;-50
2021/01/22 03:05:24;;;;;;;2.67;0.52;;;7.70;87.40;;;;;;5023130;28;20340;-50
2021/01/22 03:07:55;;;;;;;0.77;0.38;;;7.70;87.50;;;;;;5017060;28;20034;-50
2021/01/22 03:10:24;;;;;;;0.40;0.40;;;7.70;87.40;;;;;;5017857;28;20026;-50
2021/01/22 03:12:52;;;;;;;0.40;0.40;;;7.70;87.40;;;;;;5036780;28;20033;-50
2021/01/22 03:15:20;;;;;;;0.47;0.47;;;7.70;87.40;;;;;;5036848;28;20125;-50
2021/01/22 03:17:45;;;;;;;0.40;0.38;;;7.70;87.40;;;;;;5036853;28;20041;-50
2021/01/22 03:20:16;;;;;;;0.38;0.38;;;7.70;87.50;;;;;;5036724;28;20044;-50
2021/01/22 03:22:42;;;;;;;0.30;0.30;;;7.70;87.50;;;;;;5022173;28;20037;-50
2021/01/22 03:25:10;;;;;;;0.30;0.30;;;7.70;87.40;;;;;;5014163;28;20026;-50
2021/01/22 03:27:36;;;;;;;0.47;0.35;;;7.70;87.20;;;;;;5021953;28;20098;-50
2021/01/22 03:30:03;;;;;;;0.30;0.30;;;7.70;87.40;;;;;;5016680;28;20022;-50
2021/01/22 03:32:29;;;;;;;0.55;0.55;;;7.70;87.40;;;;;;5017982;28;20030;-50
2021/01/22 03:35:03;;;;;;;1.65;0.68;;;7.70;87.40;;;;;;5018071;28;20036;-49
2021/01/22 03:37:28;;;;;;;0.50;0.50;;;7.70;87.40;;;;;;5013691;28;20037;-50
2021/01/22 03:39:54;;;;;;;0.50;0.50;;;7.70;87.40;;;;;;5016749;28;20045;-50
2021/01/22 03:42:19;;;;;;;0.73;0.60;;;7.70;87.40;;;;;;5017603;28;20336;-50
2021/01/22 03:44:45;;;;;;;1.27;0.88;;;7.70;87.40;;;;;;5016299;28;20065;-49
2021/01/22 03:47:11;;;;;;;0.50;0.50;;;7.70;87.40;;;;;;5027911;28;20034;-50
2021/01/22 03:49:36;;;;;;;0.20;0.20;;;7.70;87.40;;;;;;5035965;28;20025;-50
2021/01/22 03:52:02;;;;;;;0.20;0.20;;;7.70;87.40;;;;;;5034702;28;20034;-50
2021/01/22 03:54:28;;;;;;;0.30;0.30;;;7.70;87.30;;;;;;5024633;28;20045;-50
2021/01/22 03:56:54;;;;;;;0.30;0.30;;;7.70;87.40;;;;;;5035038;28;20072;-49
2021/01/22 03:59:20;;;;;;;1.88;0.55;;;7.70;87.30;;;;;;5034538;28;20052;-50
2021/01/22 04:01:46;;;;;;;3.17;0.60;;;7.60;87.30;;;;;;5035626;28;20223;-50
2021/01/22 04:04:11;;;;;;;0.47;0.47;;;7.70;87.30;;;;;;5034204;28;20037;-50
2021/01/22 04:06:37;;;;;;;0.30;0.30;;;7.60;87.20;;;;;;5021512;28;20034;-50
2021/01/22 04:09:04;;;;;;;0.65;0.57;;;7.60;87.20;;;;;;5016132;28;20037;-50
2021/01/22 04:11:30;;;;;;;0.30;0.30;;;7.60;87.20;;;;;;5015891;28;20030;-49
2021/01/22 04:13:56;;;;;;;0.40;0.40;;;7.60;87.20;;;;;;5017054;28;20391;-50
2021/01/22 04:16:21;;;;;;;0.57;0.52;;;7.60;87.10;;;;;;5015410;28;20030;-49
2021/01/22 04:18:47;;;;;;;0.40;0.40;;;7.60;87.20;;;;;;5015695;28;20129;-50
2021/01/22 04:21:13;;;;;;;0.93;0.50;;;7.60;87.20;;;;;;5015358;28;20025;-50
2021/01/22 04:23:38;;;;;;;1.05;0.70;;;7.60;87.20;;;;;;5016974;28;20018;-50
2021/01/22 04:26:04;;;;;;;0.40;0.40;;;7.60;87.20;;;;;;5015836;28;20030;-50
2021/01/22 04:28:30;;;;;;;0.22;0.22;;;7.60;87.30;;;;;;5015868;28;20030;-50
2021/01/22 04:30:56;;;;;;;3.75;0.77;;;7.60;87.20;;;;;;5018157;28;20033;-50
2021/01/22 04:33:21;;;;;;;0.20;0.20;;;7.60;87.30;;;;;;5035220;28;20045;-50
2021/01/22 04:35:47;;;;;;;1.60;0.35;;;7.60;87.20;;;;;;5033548;28;20087;-51
2021/01/22 04:38:13;;;;;;;0.30;0.30;;;7.60;87.20;;;;;;5035291;28;20033;-50
2021/01/22 04:40:39;;;;;;;5.65;0.77;;;7.60;87.20;;;;;;5035293;28;20470;-50
2021/01/22 04:43:04;;;;;;;0.30;0.30;;;7.60;87.20;;;;;;5035009;28;20021;-50
2021/01/22 04:45:30;;;;;;;0.30;0.30;;;7.60;87.20;;;;;;5025812;28;20099;-50
2021/01/22 04:47:59;;;;;;;1.08;0.45;;;7.60;87.20;;;;;;5015248;28;20029;-50
2021/01/22 04:50:26;;;;;;;4.80;1.55;;;7.60;87.20;;;;;;5015111;28;20112;-50
2021/01/22 04:52:54;;;;;;;3.03;0.65;;;7.60;87.20;;;;;;5017694;28;20032;-50
2021/01/22 04:55:21;;;;;;;0.50;0.40;;;7.60;87.20;;;;;;5015881;28;20411;-50
2021/01/22 04:57:48;;;;;;;0.40;0.40;;;7.60;87.20;;;;;;5014553;28;20033;-50
2021/01/22 05:00:15;;;;;;;0.60;0.60;;;7.60;87.10;;;;;;5015017;28;20042;-50
2021/01/22 05:02:41;;;;;;;1.45;0.70;;;7.60;87.80;;;;;;5014819;28;20101;-50
2021/01/22 05:05:08;;;;;;;0.22;0.22;;;7.60;87.10;;;;;;5015194;28;20650;-50
2021/01/22 05:07:34;;;;;;;2.72;0.82;;;7.60;87.10;;;;;;5015934;28;20041;-50
2021/01/22 05:10:00;;;;;;;0.30;0.30;;;7.60;87.10;;;;;;5017491;28;20493;-50
2021/01/22 05:12:35;;;;;;;3.75;0.55;;;7.60;87.10;;;;;;5034024;28;20033;-50
2021/01/22 05:15:15;;;;;;;0.30;0.30;;;7.60;87.10;;;;;;5034049;28;20475;-50
2021/01/22 05:17:55;;;;;;;0.80;0.50;;;7.60;87.20;;;;;;5032437;28;20037;-50
2021/01/22 05:20:51;;;;;;;0.22;0.22;;;7.60;87.20;;;;;;5034482;28;20041;-50
2021/01/22 05:23:17;;;;;;;2.53;0.70;;;7.50;87.10;;;;;;5051694;28;20464;-50
2021/01/22 05:26:00;;;;;;;0.40;0.40;;;7.60;87.20;;;;;;5051930;28;20040;-50
2021/01/22 05:28:38;;;;;;;0.30;0.30;;;7.60;87.20;;;;;;5034287;28;20037;-50
2021/01/22 05:31:08;;;;;;;0.50;0.50;;;7.60;87.10;;;;;;5035601;28;20370;-50
2021/01/22 05:33:36;;;;;;;0.55;0.55;;;7.60;87.10;;;;;;5044851;28;20033;-50
2021/01/22 05:36:32;;;;;;;0.20;0.20;;;7.60;87.20;;;;;;5035189;28;20475;-50
2021/01/22 05:39:00;;;;;;;0.30;0.30;;;7.60;87.10;;;;;;5037211;28;20041;-50
2021/01/22 05:41:27;;;;;;;0.50;0.50;;;7.60;87.80;;;;;;5041488;28;20040;-51
2021/01/22 05:43:53;;;;;;;0.40;0.40;;;7.60;87.10;;;;;;5039147;28;20044;-50
2021/01/22 05:46:24;;;;;;;0.50;0.50;;;7.50;87.10;;;;;;5048352;28;20452;-50
2021/01/22 05:49:12;;;;;;;0.52;0.52;;;7.50;87.00;;;;;;5038874;28;20116;-50
2021/01/22 05:51:38;;;;;;;2.38;0.50;;;7.50;87.00;;;;;;5050899;28;20123;-50
2021/01/22 05:54:04;;;;;;;1.75;0.75;;;7.60;87.00;;;;;;5038645;28;20152;-50
2021/01/22 05:56:30;;;;;;;0.20;0.20;;;7.50;87.00;;;;;;5037514;28;20041;-50
2021/01/22 05:58:56;;;;;;;2.50;0.40;;;7.60;87.10;;;;;;5034428;28;20046;-50
2021/01/22 06:01:26;;;;;;;0.32;0.32;;;7.50;87.10;;;;;;5019854;28;20039;-50
2021/01/22 06:04:05;;;;;;;0.30;0.30;;;7.50;87.10;;;;;;5016363;28;20061;-50
2021/01/22 06:06:32;;;;;;;0.30;0.30;;;7.60;87.10;;;;;;5020092;28;20112;-50
2021/01/22 06:08:59;;;;;;;0.45;0.45;;;7.50;87.10;;;;;;5016932;28;20037;-50
2021/01/22 06:11:27;;;;;;;0.65;0.40;;;7.50;87.10;;;;;;5026439;28;20109;-50
2021/01/22 06:13:54;;;;;;;0.52;0.52;;;7.50;87.10;;;;;;5023514;28;20029;-50
2021/01/22 06:16:22;;;;;;;0.93;0.60;;;7.50;87.20;;;;;;5024022;28;20013;-50
2021/01/22 06:19:00;;;;;;;0.77;0.60;;;7.50;87.20;;;;;;5021372;28;20034;-50
2021/01/22 06:21:32;;;;;;;0.47;0.47;;;7.50;87.10;;;;;;5021359;28;20116;-50
2021/01/22 06:24:01;;;;;;;2.97;0.93;;;7.50;87.10;;;;;;5020709;28;20077;-50
2021/01/22 06:26:29;;;;;;;1.95;0.73;;;7.50;87.00;;;;;;5021593;28;20036;-50
2021/01/22 06:29:00;;;;;;;2.55;1.13;;;7.50;87.00;;;;;;5023234;28;20044;-50
2021/01/22 06:31:27;;;;;;;0.60;0.60;;;7.50;87.00;;;;;;5019984;28;20022;-50
2021/01/22 06:33:55;;;;;;;0.60;0.60;;;7.50;86.90;;;;;;5020959;28;20045;-50
2021/01/22 06:36:22;;;;;;;2.38;0.80;;;7.50;87.00;;;;;;5022753;28;20026;-50
2021/01/22 06:38:49;;;;;;;2.47;0.95;;;7.50;87.00;;;;;;5018904;28;20407;-50
2021/01/22 06:41:16;;;;;;;1.77;1.00;;;7.50;86.90;;;;;;5022849;28;20040;-50
2021/01/22 06:43:43;;;;;;;0.55;0.55;;;7.50;86.90;;;;;;5023623;28;20038;-50
2021/01/22 06:46:14;;;;;;;0.35;0.35;;;7.50;87.00;;;;;;5021410;28;20030;-50
2021/01/22 06:48:51;;;;;;;0.47;0.47;;;7.50;87.00;;;;;;5023915;28;20026;-50
2021/01/22 06:51:17;;;;;;;0.55;0.55;;;7.50;87.00;;;;;;5020752;28;20034;-50
2021/01/22 06:54:06;;;;;;;0.55;0.55;;;7.50;87.00;;;;;;5022044;28;20466;-50
2021/01/22 06:56:33;;;;;;;1.23;0.57;;;7.50;87.10;;;;;;5023457;28;20021;-50
2021/01/22 06:59:20;;;;;;;1.10;1.00;;;7.50;87.10;;;;;;5023142;28;20036;-50
2021/01/22 07:01:47;;;;;;;1.17;0.35;;;7.50;87.10;;;;;;5025210;28;20025;-50
2021/01/22 07:04:31;;;;;;;0.40;0.40;;;7.50;87.10;;;;;;5031313;28;20040;-50
2021/01/22 07:06:57;;;;;;;0.65;0.52;;;7.50;87.10;;;;;;5025311;28;20041;-50
2021/01/22 07:09:43;;;;;;;0.20;0.20;;;7.50;87.10;;;;;;5032804;28;20018;-50
2021/01/22 07:12:10;;;;;;;0.30;0.30;;;7.50;87.20;;;;;;5031461;28;20116;-50
2021/01/22 07:14:46;;;;;;;0.30;0.30;;;7.50;87.20;;;;;;5030999;28;20033;-50
2021/01/22 07:17:21;;;;;;;29.50;1.08;;;7.50;87.10;;;;;;5032441;28;20030;-50
2021/01/22 07:20:10;;;;;;;0.20;0.20;;;7.50;87.20;;;;;;5032368;28;20521;-50
2021/01/22 07:22:49;;;;;;;1.02;0.35;;;7.50;87.10;;;;;;5031483;28;20044;-50
2021/01/22 07:25:38;;;;;;;0.63;0.52;;;7.50;87.10;;;;;;5032259;28;20029;-50
2021/01/22 07:28:17;;;;;;;0.55;0.55;;;7.50;87.10;;;;;;5021731;28;20029;-50
2021/01/22 07:30:43;;;;;;;0.20;0.20;;;7.50;87.10;;;;;;5013040;28;20026;-50
2021/01/22 07:33:27;;;;;;;0.43;0.43;;;7.50;87.10;;;;;;5013784;28;20018;-50
2021/01/22 07:36:11;;;;;;;2.35;0.88;;;7.50;87.10;;;;;;5031469;28;20034;-50
2021/01/22 07:38:38;;;;;;;0.40;0.40;;;7.50;87.00;;;;;;5031776;28;20502;-50
2021/01/22 07:41:06;;;;;;;0.30;0.30;;;7.50;87.10;;;;;;5031618;28;20033;-50
2021/01/22 07:43:31;;;;;;;0.90;0.73;;;7.50;87.10;;;;;;5032306;28;20021;-50
2021/01/22 07:46:08;;;;;;;0.90;0.60;;;7.50;87.00;;;;;;5030552;28;20042;-50
2021/01/22 07:48:35;;;;;;;0.55;0.55;;;7.50;87.00;;;;;;5030667;28;20466;-50
2021/01/22 07:51:33;;;;;;;2.03;0.73;;;7.50;87.10;;;;;;5020642;28;20018;-50
2021/01/22 07:54:01;;;;;;;1.00;0.55;;;7.60;87.00;;;;;;5031602;28;20083;-50
2021/01/22 07:56:34;;;;;;;0.40;0.40;;;7.50;87.10;;;;;;5031867;28;20370;-50
2021/01/22 07:59:00;;;;;;;1.77;0.52;;;7.60;87.10;;;;;;5031550;28;20033;-50
2021/01/22 08:01:26;;;;;;;3.15;0.68;;;7.60;87.00;;;;;;5031435;28;20355;-50
2021/01/22 08:03:51;;;;;;;0.30;0.30;;;7.60;87.00;;;;;;5024179;28;20026;-50
2021/01/22 08:06:17;;;;;;;1.75;0.82;;;7.60;87.00;;;;;;5026280;28;20056;-50
2021/01/22 08:08:42;;;;;;;4.63;0.80;;;7.60;87.00;;;;;;5029318;28;20092;-50
2021/01/22 08:11:21;;;;;;;0.98;0.52;;;7.60;87.00;;;;;;5023479;28;20460;-50
2021/01/22 08:13:47;;;;;;;0.40;0.40;;;7.70;87.00;;;;;;5024555;28;20038;-50
2021/01/22 08:16:21;;;;;;;0.38;0.38;;;7.60;86.90;;;;;;5023268;28;20474;-50
2021/01/22 08:18:47;;;;;;;0.32;0.32;;;7.60;86.80;;;;;;5035565;28;20041;-50
2021/01/22 08:21:12;;;;;;;0.30;0.30;;;7.70;86.90;;;;;;5033836;28;20466;-50
2021/01/22 08:23:42;;;;;;;0.52;0.52;;;7.70;86.90;;;;;;5022984;28;20033;-50
2021/01/22 08:26:13;;;;;;;0.50;0.50;;;7.70;86.80;;;;;;5029356;28;20451;-50
2021/01/22 08:28:39;;;;;;;0.40;0.40;;;7.80;87.00;;;;;;5035727;28;20037;-50
2021/01/22 08:31:12;;;;;;;1.00;0.52;;;7.80;86.90;;;;;;5035540;28;20029;-50
2021/01/22 08:33:38;;;;;;;0.30;0.30;;;7.80;86.70;;;;;;5030888;28;20399;-50
2021/01/22 08:36:08;;;;;;;0.40;0.40;;;7.80;86.80;;;;;;5019770;28;20104;-50
2021/01/22 08:38:35;;;;;;;0.30;0.30;;;7.80;87.60;;;;;;5026089;28;20029;-50
2021/01/22 08:41:01;;;;;;;0.50;0.45;;;7.80;87.10;;;;;;5028003;28;20030;-50
2021/01/22 08:43:27;;;;;;;0.70;0.70;;;7.80;87.20;;;;;;5030763;28;20032;-51
2021/01/22 08:46:07;;;;;;;1.00;0.57;;;7.80;87.20;;;;;;5017828;28;20095;-50
2021/01/22 08:48:33;;;;;;;0.50;0.50;;;7.80;87.10;;;;;;5022982;28;20036;-50
2021/01/22 08:51:00;;;;;;;0.80;0.40;;;7.80;87.20;;;;;;5031114;28;20336;-50
2021/01/22 08:53:26;;;;;;;0.30;0.30;;;7.80;87.20;;;;;;5025858;28;20036;-50
2021/01/22 08:56:15;;;;;;;0.55;0.55;;;7.90;87.20;;;;;;5025294;28;20030;-50
2021/01/22 08:59:17;;;;;;;0.30;0.30;;;7.90;87.20;;;;;;5019100;28;20022;-50
2021/01/22 09:01:53;;;;;;;0.40;0.40;;;7.90;87.40;;;;;;5047285;28;20037;-50
2021/01/22 09:04:30;;;;;;;0.40;0.38;;;7.90;87.10;;;;;;5045895;28;20043;-50
2021/01/22 09:06:58;;;;;;;0.32;0.32;;;7.90;87.00;;;;;;5039846;28;20021;-50
2021/01/22 09:09:47;;;;;;;0.20;0.20;;;7.90;87.00;;;;;;5034525;28;20501;-50
2021/01/22 09:12:17;;;;;;;0.32;0.32;;;8.00;86.90;;;;;;5033513;28;20445;-50
2021/01/22 09:15:00;;;;;;;0.57;0.57;;;8.00;86.90;;;;;;5035493;28;20572;-50
2021/01/22 09:17:35;;;;;;;0.20;0.20;;;8.00;87.70;;;;;;5043858;28;20045;-50
2021/01/22 09:20:05;;;;;;;0.60;0.60;;;8.00;86.90;;;;;;5031840;28;20471;-50
2021/01/22 09:22:32;;;;;;;0.50;0.50;;;8.10;86.90;;;;;;5031522;28;20140;-50
2021/01/22 09:25:03;;;;;;;0.60;0.60;;;8.00;86.80;;;;;;5036563;28;20038;-50
2021/01/22 09:27:29;;;;;;;0.93;0.80;;;8.10;87.00;;;;;;5032901;28;20109;-50
2021/01/22 09:29:55;;;;;;;1.85;0.80;;;8.10;86.90;;;;;;5031810;28;20116;-50
2021/01/22 09:32:21;;;;;;;0.52;0.50;;;8.10;86.90;;;;;;5031614;28;20568;-50
2021/01/22 09:34:46;;;;;;;2.90;0.77;;;8.10;86.80;;;;;;5029391;28;20067;-50
2021/01/22 09:37:12;;;;;;;0.52;0.52;;;8.10;86.80;;;;;;5017042;28;20029;-51
2021/01/22 09:39:38;;;;;;;0.32;0.32;;;8.20;87.00;;;;;;5013602;28;20045;-50
2021/01/22 09:42:04;;;;;;;1.25;0.80;;;8.20;86.80;;;;;;5020372;28;20025;-50
2021/01/22 09:44:30;;;;;;;0.47;0.47;;;8.20;86.60;;;;;;5019809;28;20396;-50
2021/01/22 09:46:56;;;;;;;0.85;0.70;;;8.30;86.70;;;;;;5030089;28;20105;-50
2021/01/22 09:49:22;;;;;;;5.10;0.90;;;8.30;86.70;;;;;;5014951;28;20356;-50
2021/01/22 09:51:47;;;;;;;6.18;1.23;;;8.30;86.60;;;;;;5018727;28;20038;-51
2021/01/22 09:54:13;;;;;;;1.45;0.60;;;8.30;86.50;;;;;;5030307;28;20033;-50
2021/01/22 09:56:39;;;;;;;0.38;0.38;;;8.40;86.70;;;;;;5019151;28;20029;-50
2021/01/22 09:59:06;;;;;;;0.43;0.40;;;8.40;86.70;;;;;;5022689;28;20518;-50
2021/01/22 10:01:33;;;;;;;2.75;0.50;;;8.40;86.50;;;;;;5028495;28;20120;-50
2021/01/22 10:03:58;;;;;;;0.30;0.30;;;8.40;86.50;;;;;;5021441;28;20100;-50
2021/01/22 10:06:24;;;;;;;0.40;0.40;;;8.50;86.50;;;;;;5020376;28;20510;-50
2021/01/22 10:08:50;;;;;;;0.60;0.60;;;8.50;86.60;;;;;;5021522;28;20475;-50
2021/01/22 10:11:15;;;;;;;1.33;0.40;;;8.50;86.50;;;;;;5020207;28;20033;-50
2021/01/22 10:13:41;;;;;;;0.45;0.45;;;8.60;86.60;;;;;;5031361;28;20506;-50
2021/01/22 10:16:07;;;;;;;0.60;0.60;;;8.60;86.50;;;;;;5032481;28;20033;-50
2021/01/22 10:18:32;;;;;;;0.77;0.50;;;8.60;86.70;;;;;;5015491;28;20030;-50
2021/01/22 10:20:58;;;;;;;0.57;0.57;;;8.60;86.70;;;;;;5023376;28;20129;-50
2021/01/22 10:23:24;;;;;;;0.77;0.50;;;8.70;86.90;;;;;;5013512;28;20026;-50
2021/01/22 10:25:49;;;;;;;3.70;0.98;;;8.70;87.00;;;;;;5013329;28;20032;-50
2021/01/22 10:28:15;;;;;;;4.13;0.90;;;8.70;87.00;;;;;;5020491;28;20030;-50
2021/01/22 10:30:40;;;;;;;1.13;0.65;;;8.80;86.90;;;;;;5033041;28;20471;-50
2021/01/22 10:33:06;;;;;;;1.55;0.82;;;8.80;87.00;;;;;;5030210;28;20059;-51
2021/01/22 10:35:32;;;;;;;0.60;0.60;;;8.80;87.00;;;;;;5015608;28;20037;-50
2021/01/22 10:37:57;;;;;;;1.10;0.55;;;8.80;87.70;;;;;;5014030;28;20111;-51
2021/01/22 10:40:23;;;;;;;0.32;0.32;;;8.80;86.90;;;;;;5013391;28;20087;-50
2021/01/22 10:42:48;;;;;;;0.90;0.65;;;8.80;86.70;;;;;;5013113;28;20053;-50
2021/01/22 10:45:15;;;;;;;1.90;0.73;;;8.80;87.00;;;;;;5020687;28;20041;-50
2021/01/22 10:47:40;;;;;;;0.40;0.40;;;8.90;87.00;;;;;;5027114;28;20287;-50
2021/01/22 10:50:07;;;;;;;0.50;0.50;;;8.90;86.70;;;;;;5019098;28;20511;-50
2021/01/22 10:52:33;;;;;;;0.40;0.40;;;8.90;87.00;;;;;;5018933;28;20452;-50
2021/01/22 10:54:59;;;;;;;0.52;0.52;;;8.90;86.70;;;;;;5013213;28;20033;-50
2021/01/22 10:57:24;;;;;;;0.50;0.50;;;8.90;86.90;;;;;;5032644;28;20025;-50
2021/01/22 10:59:50;;;;;;;1.35;0.77;;;8.90;88.00;;;;;;5031310;28;20033;-50
2021/01/22 11:02:16;;;;;;;4.22;0.70;;;8.90;87.30;;;;;;5028037;28;20040;-50
2021/01/22 11:04:41;;;;;;;0.73;0.73;;;8.90;87.10;;;;;;5012994;28;20037;-50
2021/01/22 11:07:08;;;;;;;1.58;0.57;;;8.90;87.20;;;;;;5029191;28;20406;-50
2021/01/22 11:09:33;;;;;;;0.55;0.45;;;8.90;87.10;;;;;;5026196;28;20034;-50
2021/01/22 11:12:03;;;;;;;0.40;0.40;;;8.90;87.30;;;;;;5023157;28;20028;-50
2021/01/22 11:14:28;;;;;;;0.60;0.60;;;9.00;87.50;;;;;;5025229;28;20519;-50
2021/01/22 11:16:54;;;;;;;0.43;0.43;;;9.00;87.20;;;;;;5030772;28;20121;-50
2021/01/22 11:19:19;;;;;;;0.40;0.40;;;9.00;87.30;;;;;;5032707;28;20091;-50
2021/01/22 11:21:45;;;;;;;0.30;0.30;;;9.00;87.30;;;;;;5032547;28;20458;-50
2021/01/22 11:24:10;;;;;;;1.05;0.50;;;9.10;87.40;;;;;;5033029;28;20120;-50
2021/01/22 11:26:36;;;;;;;0.30;0.30;;;9.10;87.50;;;;;;5032410;28;20385;-50
2021/01/22 11:29:02;;;;;;;0.75;0.47;;;9.10;87.30;;;;;;5035944;28;20026;-50
2021/01/22 11:31:28;;;;;;;0.30;0.30;;;9.20;87.50;;;;;;5021076;28;20049;-50
2021/01/22 11:33:54;;;;;;;2.17;0.60;;;9.20;87.50;;;;;;5030697;28;20716;-50
2021/01/22 11:36:21;;;;;;;0.52;0.50;;;9.20;87.50;;;;;;5017128;28;20044;-50
2021/01/22 11:38:47;;;;;;;0.60;0.60;;;9.30;87.50;;;;;;5028257;28;20043;-50
2021/01/22 11:41:13;;;;;;;0.75;0.60;;;9.30;87.40;;;;;;5028393;28;20109;-50
2021/01/22 11:43:39;;;;;;;0.30;0.30;;;9.30;87.50;;;;;;5016361;28;20021;-50
2021/01/22 11:46:05;;;;;;;0.52;0.45;;;9.40;87.40;;;;;;5031275;28;20221;-50
2021/01/22 11:48:31;;;;;;;1.02;0.85;;;9.40;87.30;;;;;;5034359;28;20522;-51
2021/01/22 11:50:56;;;;;;;0.32;0.32;;;9.40;87.30;;;;;;5035749;28;20123;-50
2021/01/22 11:53:22;;;;;;;0.75;0.55;;;9.40;87.40;;;;;;5035212;28;20071;-50
2021/01/22 11:55:48;;;;;;;0.30;0.30;;;9.40;87.50;;;;;;5025955;28;20440;-50
2021/01/22 11:58:13;;;;;;;0.40;0.40;;;9.40;87.40;;;;;;5025899;28;20443;-50
2021/01/22 12:00:39;;;;;;;0.55;0.55;;;9.40;87.20;;;;;;5025183;28;20042;-50
2021/01/22 12:03:05;;;;;;;0.45;0.45;;;9.40;87.50;;;;;;5024491;28;20025;-50
2021/01/22 12:05:30;;;;;;;1.45;0.60;;;9.30;87.70;;;;;;5025443;28;20033;-50
2021/01/22 12:07:56;;;;;;;0.60;0.50;;;9.30;87.70;;;;;;5026353;28;20032;-50
2021/01/22 12:10:22;;;;;;;0.60;0.60;;;9.30;87.70;;;;;;5025832;28;20034;-50
2021/01/22 12:12:48;;;;;;;1.13;0.75;;;9.30;88.30;;;;;;5034797;28;20148;-50
2021/01/22 12:15:14;;;;;;;1.08;0.73;;;9.30;87.70;;;;;;5024053;28;20038;-50
2021/01/22 12:17:39;;;;;;;0.88;0.50;;;9.30;87.80;;;;;;5025724;28;20026;-50
2021/01/22 12:20:06;;;;;;;0.57;0.50;;;9.30;88.10;;;;;;5025269;28;20069;-50
2021/01/22 12:22:31;;;;;;;0.80;0.80;;;9.30;88.10;;;;;;5025163;28;20078;-50
2021/01/22 12:24:57;;;;;;;0.80;0.73;;;9.30;87.70;;;;;;5026126;28;20072;-50
2021/01/22 12:27:22;;;;;;;0.75;0.70;;;9.30;87.80;;;;;;5025214;28;20247;-50
2021/01/22 12:29:48;;;;;;;5.50;0.60;;;9.30;87.90;;;;;;5024718;28;20453;-50
2021/01/22 12:32:14;;;;;;;1.75;0.63;;;9.30;87.90;;;;;;5022768;28;20535;-50
2021/01/22 12:34:40;;;;;;;0.55;0.55;;;9.30;88.10;;;;;;5016822;28;20045;-50
2021/01/22 12:37:05;;;;;;;0.65;0.65;;;9.20;87.90;;;;;;5023858;28;20022;-50
2021/01/22 12:39:31;;;;;;;3.53;0.63;;;9.20;88.00;;;;;;5026597;28;20372;-50
2021/01/22 12:41:57;;;;;;;1.40;1.10;;;9.20;88.10;;;;;;5027092;28;20400;-50
2021/01/22 12:44:22;;;;;;;0.90;0.65;;;9.30;88.20;;;;;;5022930;28;20046;-50
2021/01/22 12:46:48;;;;;;;1.42;0.90;;;9.20;88.30;;;;;;5021966;28;20120;-50
2021/01/22 12:49:14;;;;;;;1.02;0.55;;;9.20;88.40;;;;;;5033983;28;20053;-50
2021/01/22 12:51:39;;;;;;;2.40;0.85;;;9.20;88.40;;;;;;5021010;28;20028;-50
2021/01/22 12:54:05;;;;;;;0.90;0.70;;;9.20;88.40;;;;;;5020512;28;20451;-50
2021/01/22 12:56:32;;;;;;;1.35;1.13;;;9.20;88.40;;;;;;5021369;28;20367;-50
2021/01/22 12:58:57;;;;;;;3.28;1.00;;;9.30;88.50;;;;;;5022779;28;20092;-50
2021/01/22 13:01:24;;;;;;;1.73;1.20;;;9.30;89.00;;;;;;5024167;28;20367;-50
2021/01/22 13:03:50;;;;;;;1.80;1.30;;;9.30;89.10;;;;;;5023223;28;20451;-50